aviador You're here:

CYYT Decoded Metar

ST. JOHN'S in NL, CANADA
Report Time2017-08-18 23:00:00
UTC Time2017-08-18 23:43:03
Flight Rules ifr IFR
Wind340° at 21 Gusting to 31 kt
W.Decomp.*RWY 02: 19.9 kt HW 6.8 kt LCW
RWY 34: 19.6 kt HW 7.5 kt RCW
RWY 29: 6.8 kt HW 19.9 kt RCW
W.Rank340° ranks 16
Current wind is above 340° avg. (11.6)
Visibility9999 m
Phenomena:Light Rain
Clouds:Overcast 006 Hf
Ceiling600 ft
Temp10°C (ISA -4)
Dew Point10°C (100% RH)
AAT2.5°C
QNH1008 hPa
Density Alt308 ft
Elevation459 ft
Report Wrong Elevation
Raw Report
CYYT 182300Z 34021G31KT 12SM -RA OVC006 10/10 A2977 RMK SF8
SLP086=

Extra information for CYYT:More info

Metar Taf Metar & Taf Last 4 Metars F.Rules Stats Wind Profile Meteogram Temp Stats Airport Information Weather charts Add Link Nearby VenuesMetar ALERT Operation Metar Decoded Social comments